createdAt,value
2022-12-04T00:02:22.910Z,-2.18
2022-12-04T00:04:52.551Z,-2.03
2022-12-04T00:07:21.265Z,-2.98
2022-12-04T00:09:49.495Z,-1.99
2022-12-04T00:12:20.937Z,-2.00
2022-12-04T00:15:23.535Z,-1.94
2022-12-04T00:17:37.717Z,-1.93
2022-12-04T00:20:09.269Z,-1.95
2022-12-04T00:22:38.033Z,-2.07
2022-12-04T00:25:06.890Z,-2.05
2022-12-04T00:27:35.654Z,-2.17
2022-12-04T00:30:03.863Z,-2.12
2022-12-04T00:32:32.282Z,-1.99
2022-12-04T00:35:00.658Z,-1.94
2022-12-04T00:37:30.572Z,-1.88
2022-12-04T00:39:58.792Z,-1.91
2022-12-04T00:42:27.521Z,-1.88
2022-12-04T00:44:55.746Z,-1.85
2022-12-04T00:47:24.235Z,-1.87
2022-12-04T00:49:52.693Z,-1.90
2022-12-04T00:52:21.302Z,-1.87
2022-12-04T00:54:51.011Z,-1.98
2022-12-04T00:57:19.543Z,-1.93
2022-12-04T00:59:47.710Z,-1.98
2022-12-04T01:02:16.167Z,-1.86
2022-12-04T01:04:44.814Z,-1.79
2022-12-04T01:07:13.288Z,-1.80
2022-12-04T01:09:41.433Z,-1.77
2022-12-04T01:12:16.208Z,-1.81
2022-12-04T01:14:47.285Z,-1.93
2022-12-04T01:17:15.861Z,-1.92
2022-12-04T01:19:44.023Z,-1.86
2022-12-04T01:22:12.520Z,-1.89
2022-12-04T01:24:40.710Z,-1.79
2022-12-04T01:27:09.195Z,-1.81
2022-12-04T01:29:39.218Z,-1.87
2022-12-04T01:32:07.901Z,-1.80
2022-12-04T01:34:37.208Z,-1.79
2022-12-04T01:37:05.827Z,-1.96
2022-12-04T01:39:37.084Z,-2.05
2022-12-04T01:42:06.189Z,-1.87
2022-12-04T01:44:34.597Z,-1.90
2022-12-04T01:47:04.767Z,-1.84
2022-12-04T01:49:38.081Z,-1.84
2022-12-04T01:52:10.580Z,-1.87
2022-12-04T01:54:42.525Z,-1.93
2022-12-04T01:57:15.605Z,-1.96
2022-12-04T01:59:49.095Z,-1.92
2022-12-04T02:02:23.813Z,-1.80
2022-12-04T02:04:52.388Z,-1.75
2022-12-04T02:07:20.807Z,-1.91
2022-12-04T02:09:56.161Z,-1.94
2022-12-04T02:12:33.620Z,-1.83
2022-12-04T02:15:09.778Z,-1.86
2022-12-04T02:17:45.433Z,-1.74
2022-12-04T02:20:26.492Z,-1.72
2022-12-04T02:23:30.865Z,-1.64
2022-12-04T02:26:11.110Z,-2.14
2022-12-04T02:28:49.518Z,-1.63
2022-12-04T02:31:23.166Z,-1.57
2022-12-04T02:34:00.269Z,-1.57
2022-12-04T02:36:32.588Z,-1.60
2022-12-04T02:39:08.309Z,-1.61
2022-12-04T02:41:41.087Z,-1.59
2022-12-04T02:44:15.438Z,-2.04
2022-12-04T02:46:46.613Z,-1.56
2022-12-04T02:49:21.093Z,-1.57
2022-12-04T02:51:51.986Z,-1.90
2022-12-04T02:54:28.058Z,-1.71
2022-12-04T02:56:59.760Z,-1.62
2022-12-04T02:59:35.518Z,-1.64
2022-12-04T03:02:10.739Z,-1.68
2022-12-04T03:04:41.064Z,-1.71
2022-12-04T03:07:15.049Z,-1.78
2022-12-04T03:09:47.947Z,-1.61
2022-12-04T03:12:21.565Z,-1.58
2022-12-04T03:14:57.426Z,-1.51
2022-12-04T03:17:30.716Z,-1.78
2022-12-04T03:20:04.455Z,-1.48
2022-12-04T03:22:36.318Z,-1.42
2022-12-04T03:25:07.200Z,-1.41
2022-12-04T03:27:43.942Z,-1.39
2022-12-04T03:34:02.435Z,-1.55
2022-12-04T03:36:37.412Z,-1.73
2022-12-04T03:39:13.699Z,-2.07
2022-12-04T03:41:59.166Z,-1.96
2022-12-04T03:44:34.200Z,-1.64
2022-12-04T03:47:10.695Z,-1.51
2022-12-04T03:49:48.367Z,-1.43
2022-12-04T03:52:23.459Z,-1.47
2022-12-04T03:55:01.173Z,-1.40
2022-12-04T03:57:32.798Z,-1.38
2022-12-04T04:00:07.223Z,-1.35
2022-12-04T04:02:41.199Z,-1.33
2022-12-04T04:05:14.514Z,-1.30
2022-12-04T04:07:47.630Z,-1.25
2022-12-04T04:10:17.771Z,-1.20
2022-12-04T04:13:12.055Z,-1.21
2022-12-04T04:16:03.748Z,-1.27
2022-12-04T04:18:51.290Z,-1.25
2022-12-04T04:21:46.117Z,-1.32
2022-12-04T04:24:27.282Z,-1.36
2022-12-04T04:26:56.692Z,-1.29
2022-12-04T04:29:25.214Z,-1.32
2022-12-04T04:31:59.316Z,-1.38
2022-12-04T04:34:36.443Z,-1.43
2022-12-04T04:37:12.795Z,-1.16
2022-12-04T04:39:49.015Z,-1.19
2022-12-04T04:42:22.502Z,-1.16
2022-12-04T04:44:57.905Z,-1.11
2022-12-04T04:47:33.713Z,-1.22
2022-12-04T04:50:06.337Z,-1.05
2022-12-04T04:52:38.009Z,-1.01
2022-12-04T04:55:08.146Z,-1.02
2022-12-04T04:57:37.676Z,-0.98
2022-12-04T05:00:09.878Z,-0.96
2022-12-04T05:02:38.548Z,-1.02
2022-12-04T05:05:07.691Z,-0.99
2022-12-04T05:07:37.339Z,-0.96
2022-12-04T05:10:07.040Z,-0.99
2022-12-04T05:12:34.866Z,-0.99
2022-12-04T05:15:03.701Z,-0.95
2022-12-04T05:17:31.770Z,-0.90
2022-12-04T05:19:59.413Z,-0.88
2022-12-04T05:22:30.066Z,-1.14
2022-12-04T05:25:00.541Z,-0.87
2022-12-04T05:27:31.052Z,-0.86
2022-12-04T05:30:00.253Z,-0.87
2022-12-04T05:32:29.855Z,-0.84
2022-12-04T05:34:59.317Z,-0.79
2022-12-04T05:37:27.652Z,-1.02
2022-12-04T05:39:56.394Z,-0.76
2022-12-04T05:42:26.258Z,-0.77
2022-12-04T05:44:54.916Z,-0.78
2022-12-04T05:47:22.960Z,-0.79
2022-12-04T05:49:51.413Z,-0.81
2022-12-04T05:52:19.632Z,-0.78
2022-12-04T05:54:48.019Z,-0.80
2022-12-04T05:57:16.171Z,-0.78
2022-12-04T05:59:45.876Z,-0.82
2022-12-04T06:02:13.746Z,-0.74
2022-12-04T06:04:42.293Z,-0.87
2022-12-04T06:07:11.400Z,-0.77
2022-12-04T06:09:39.985Z,-0.74
2022-12-04T06:12:08.311Z,-0.79
2022-12-04T06:14:39.795Z,-0.77
2022-12-04T06:17:09.911Z,-0.74
2022-12-04T06:19:38.376Z,-0.75
2022-12-04T06:22:06.552Z,-0.70
2022-12-04T06:24:34.991Z,-0.70
2022-12-04T06:29:51.497Z,-0.65
2022-12-04T06:32:21.954Z,-0.62
2022-12-04T06:34:54.683Z,-0.62
2022-12-04T06:37:25.310Z,-0.58
2022-12-04T06:39:53.970Z,-0.81
2022-12-04T06:42:22.268Z,-0.57
2022-12-04T06:44:50.735Z,-0.61
2022-12-04T06:47:20.185Z,-0.81
2022-12-04T06:49:51.070Z,-0.56
2022-12-04T06:52:19.625Z,-0.59
2022-12-04T06:54:48.031Z,-0.57
2022-12-04T06:57:16.332Z,-0.55
2022-12-04T06:59:44.696Z,-0.53
2022-12-04T07:02:13.123Z,-0.55
2022-12-04T07:04:43.161Z,-0.57
2022-12-04T07:07:11.668Z,-0.58
2022-12-04T07:09:40.251Z,-0.49
2022-12-04T07:12:08.606Z,-0.46
2022-12-04T07:14:36.993Z,-0.49
2022-12-04T07:17:05.241Z,-0.43
2022-12-04T07:19:33.712Z,-0.37
2022-12-04T07:22:03.133Z,-0.39
2022-12-04T07:24:31.659Z,-0.39
2022-12-04T07:26:59.812Z,-0.37
2022-12-04T07:29:28.397Z,-0.35
2022-12-04T07:31:56.607Z,-0.34
2022-12-04T07:34:27.489Z,-0.28
2022-12-04T07:36:55.682Z,-0.35
2022-12-04T07:39:25.784Z,-0.28
2022-12-04T07:41:53.851Z,-0.26
2022-12-04T07:44:22.346Z,-0.26
2022-12-04T07:46:50.502Z,-0.32
2022-12-04T07:49:18.956Z,-0.22
2022-12-04T07:51:47.151Z,-0.20
2022-12-04T07:54:15.544Z,-0.20
2022-12-04T07:56:45.075Z,-0.13
2022-12-04T07:59:13.527Z,-0.18
2022-12-04T08:01:41.706Z,-0.10
2022-12-04T08:04:12.014Z,-0.12
2022-12-04T08:06:40.819Z,-0.11
2022-12-04T08:09:10.340Z,-0.24
2022-12-04T08:11:39.175Z,-0.14
2022-12-04T08:14:10.068Z,0.05
2022-12-04T08:16:38.341Z,0.06
2022-12-04T08:19:07.094Z,0.02
2022-12-04T08:21:35.591Z,-0.38
2022-12-04T08:24:04.313Z,-0.02
2022-12-04T08:26:33.857Z,-0.05
2022-12-04T08:29:02.973Z,-0.08
2022-12-04T08:31:35.015Z,0.02
2022-12-04T08:34:05.936Z,0.07
2022-12-04T08:36:35.290Z,0.11
2022-12-04T08:39:03.961Z,-0.09
2022-12-04T08:41:33.124Z,0.06
2022-12-04T08:44:01.310Z,0.03
2022-12-04T08:46:31.365Z,0.13
2022-12-04T08:49:01.176Z,0.16
2022-12-04T08:51:30.593Z,0.21
2022-12-04T08:54:01.448Z,0.25
2022-12-04T08:56:31.684Z,0.27
2022-12-04T08:59:01.983Z,0.32
2022-12-04T09:01:31.097Z,0.31
2022-12-04T09:04:06.242Z,0.35
2022-12-04T09:06:34.693Z,0.35
2022-12-04T09:09:07.406Z,0.38
2022-12-04T09:11:38.345Z,0.41
2022-12-04T09:14:10.155Z,0.44
2022-12-04T09:16:41.318Z,0.43
2022-12-04T09:19:11.994Z,0.48
2022-12-04T09:21:41.214Z,0.24
2022-12-04T09:24:14.152Z,0.15
2022-12-04T09:26:45.608Z,0.44
2022-12-04T09:29:15.419Z,0.57
2022-12-04T09:31:43.858Z,0.45
2022-12-04T09:34:21.692Z,0.49
2022-12-04T09:36:51.173Z,0.58
2022-12-04T09:39:22.201Z,0.55
2022-12-04T09:42:24.322Z,0.59
2022-12-04T09:45:01.918Z,0.63
2022-12-04T09:47:39.493Z,0.52
2022-12-04T09:50:15.997Z,0.51
2022-12-04T09:52:52.641Z,0.53
2022-12-04T09:55:26.863Z,0.59
2022-12-04T09:58:03.186Z,0.59
2022-12-04T10:00:34.227Z,0.53
2022-12-04T10:03:05.869Z,0.56
2022-12-04T10:05:55.104Z,0.63
2022-12-04T10:08:25.960Z,0.72
2022-12-04T10:11:07.118Z,0.75
2022-12-04T10:14:01.012Z,0.54
2022-12-04T10:16:41.080Z,0.70
2022-12-04T10:19:21.704Z,0.75
2022-12-04T10:22:21.382Z,0.81
2022-12-04T10:24:54.771Z,0.45
2022-12-04T10:27:32.299Z,0.68
2022-12-04T10:30:20.824Z,0.77
2022-12-04T10:32:53.643Z,0.78
2022-12-04T10:35:30.070Z,0.75
2022-12-04T10:38:08.463Z,0.73
2022-12-04T10:40:50.405Z,0.72
2022-12-04T10:43:33.386Z,0.77
2022-12-04T10:46:04.409Z,0.75
2022-12-04T10:48:42.307Z,0.82
2022-12-04T10:51:18.847Z,0.76
2022-12-04T10:53:53.441Z,0.79
2022-12-04T10:56:25.884Z,0.83
2022-12-04T10:59:03.857Z,0.86
2022-12-04T11:01:36.443Z,0.85
2022-12-04T11:04:27.672Z,0.89
2022-12-04T11:07:06.613Z,0.90
2022-12-04T11:09:39.466Z,0.83
2022-12-04T11:12:12.379Z,0.83
2022-12-04T11:14:46.999Z,0.81
2022-12-04T11:17:21.155Z,0.79
2022-12-04T11:20:17.397Z,0.45
2022-12-04T11:22:59.582Z,0.79
2022-12-04T11:25:40.762Z,0.81
2022-12-04T11:28:40.214Z,0.84
2022-12-04T11:31:23.001Z,0.83
2022-12-04T11:33:57.298Z,0.67
2022-12-04T11:36:36.533Z,0.79
2022-12-04T11:39:12.869Z,0.75
2022-12-04T11:41:43.299Z,0.49
2022-12-04T11:44:35.635Z,0.69
2022-12-04T11:47:17.571Z,0.75
2022-12-04T11:50:01.700Z,0.71
2022-12-04T11:52:49.101Z,0.50
2022-12-04T11:55:30.346Z,0.71
2022-12-04T11:58:20.973Z,0.70
2022-12-04T12:01:01.389Z,0.58
2022-12-04T12:03:45.069Z,0.43
2022-12-04T12:06:34.820Z,0.59
2022-12-04T12:09:21.200Z,0.60
2022-12-04T12:11:56.883Z,0.63
2022-12-04T12:14:35.691Z,0.57
2022-12-04T12:17:16.184Z,0.61
2022-12-04T12:20:13.241Z,0.54
2022-12-04T12:23:08.410Z,0.04
2022-12-04T12:25:51.930Z,0.57
2022-12-04T12:28:35.976Z,0.56
2022-12-04T12:31:32.644Z,0.55
2022-12-04T12:34:11.092Z,0.56
2022-12-04T12:36:45.412Z,0.56
2022-12-04T12:39:20.937Z,0.52
2022-12-04T12:41:53.605Z,0.49
2022-12-04T12:44:28.125Z,0.52
2022-12-04T12:47:03.886Z,0.50
2022-12-04T12:49:38.931Z,0.33
2022-12-04T12:52:17.515Z,0.46
2022-12-04T12:54:54.688Z,0.41
2022-12-04T12:57:30.023Z,0.46
2022-12-04T13:00:10.145Z,0.48
2022-12-04T13:02:50.510Z,0.44
2022-12-04T13:05:27.297Z,0.41
2022-12-04T13:08:08.146Z,0.18
2022-12-04T13:10:44.603Z,0.43
2022-12-04T13:13:19.855Z,0.12
2022-12-04T13:15:53.400Z,0.46
2022-12-04T13:18:31.167Z,-0.44
2022-12-04T13:21:03.236Z,0.22
2022-12-04T13:23:48.558Z,-0.24
2022-12-04T13:26:30.603Z,0.36
2022-12-04T13:29:10.855Z,-0.81
2022-12-04T13:31:53.655Z,-0.37
2022-12-04T13:34:39.461Z,-0.93
2022-12-04T13:37:35.982Z,-0.47
2022-12-04T13:40:30.190Z,0.33
2022-12-04T13:43:48.386Z,-0.47
2022-12-04T13:46:29.873Z,0.34
2022-12-04T13:49:10.511Z,-0.36
2022-12-04T13:51:41.687Z,0.05
2022-12-04T13:54:31.698Z,0.25
2022-12-04T13:57:19.589Z,0.34
2022-12-04T13:59:50.829Z,-0.04
2022-12-04T14:02:25.937Z,-0.07
2022-12-04T14:04:59.552Z,0.15
2022-12-04T14:07:33.670Z,-1.53
2022-12-04T14:10:09.402Z,0.30
2022-12-04T14:12:44.136Z,0.15
2022-12-04T14:15:23.679Z,0.27
2022-12-04T14:18:01.092Z,0.21
2022-12-04T14:20:32.126Z,0.24
2022-12-04T14:23:27.402Z,0.24
2022-12-04T14:25:58.589Z,-0.26
2022-12-04T14:28:42.248Z,-0.35
2022-12-04T14:31:34.362Z,-0.50
2022-12-04T14:34:14.133Z,0.30
2022-12-04T14:36:48.036Z,0.29
2022-12-04T14:39:29.762Z,-0.83
2022-12-04T14:42:08.258Z,-0.59
2022-12-04T14:44:39.902Z,-1.32
2022-12-04T14:47:22.252Z,-0.71
2022-12-04T14:50:05.964Z,-0.69
2022-12-04T14:52:46.822Z,0.19
2022-12-04T14:55:22.522Z,0.20
2022-12-04T14:57:56.959Z,0.24
2022-12-04T15:00:28.354Z,-0.23
2022-12-04T15:02:59.386Z,0.21
2022-12-04T15:05:30.945Z,0.22
2022-12-04T15:08:02.681Z,0.13
2022-12-04T15:10:53.322Z,0.24
2022-12-04T15:13:29.472Z,0.20
2022-12-04T15:15:58.730Z,0.22
2022-12-04T15:18:27.155Z,0.11
2022-12-04T15:20:59.842Z,0.15
2022-12-04T15:23:32.240Z,0.23
2022-12-04T15:26:04.671Z,0.25
2022-12-04T15:28:36.764Z,0.20
2022-12-04T15:31:09.396Z,0.15
2022-12-04T15:33:40.073Z,0.23
2022-12-04T15:36:11.414Z,0.25
2022-12-04T15:38:41.320Z,0.24
2022-12-04T15:41:30.386Z,0.21
2022-12-04T15:43:58.598Z,0.21
2022-12-04T15:46:32.854Z,-0.19
2022-12-04T15:49:08.824Z,0.19
2022-12-04T15:51:37.398Z,0.20
2022-12-04T15:54:15.082Z,0.23
2022-12-04T15:56:45.118Z,0.27
2022-12-04T15:59:18.287Z,0.14
2022-12-04T16:01:47.618Z,0.17
2022-12-04T16:04:22.767Z,0.25
2022-12-04T16:06:54.289Z,-0.11
2022-12-04T16:09:24.811Z,0.16
2022-12-04T16:12:03.272Z,0.19
2022-12-04T16:14:31.429Z,0.19
2022-12-04T16:17:06.118Z,0.22
2022-12-04T16:19:36.858Z,0.23
2022-12-04T16:22:12.215Z,0.20
2022-12-04T16:24:40.783Z,0.19
2022-12-04T16:27:14.672Z,0.13
2022-12-04T16:29:43.572Z,0.08
2022-12-04T16:32:13.231Z,0.20
2022-12-04T16:34:41.809Z,0.04
2022-12-04T16:37:13.470Z,0.23
2022-12-04T16:39:41.849Z,0.18
2022-12-04T16:42:16.600Z,-0.01
2022-12-04T16:44:45.208Z,0.24
2022-12-04T16:47:14.539Z,-0.01
2022-12-04T16:49:44.716Z,0.28
2022-12-04T16:52:13.549Z,0.25
2022-12-04T16:54:42.093Z,0.24
2022-12-04T16:57:11.391Z,0.24
2022-12-04T16:59:40.849Z,0.24
2022-12-04T17:02:17.061Z,0.25
2022-12-04T17:04:45.650Z,0.26
2022-12-04T17:07:14.384Z,0.25
2022-12-04T17:09:42.585Z,0.24
2022-12-04T17:12:10.991Z,0.13
2022-12-04T17:14:41.846Z,0.27
2022-12-04T17:17:10.286Z,0.27
2022-12-04T17:19:38.821Z,0.23
2022-12-04T17:22:07.995Z,0.26
2022-12-04T17:24:40.775Z,0.30
2022-12-04T17:27:14.573Z,0.30
2022-12-04T17:29:46.185Z,0.18
2022-12-04T17:32:14.813Z,0.30
2022-12-04T17:34:43.210Z,0.32
2022-12-04T17:37:11.658Z,0.34
2022-12-04T17:39:39.919Z,0.34
2022-12-04T17:42:09.123Z,0.32
2022-12-04T17:44:37.346Z,0.34
2022-12-04T17:47:07.669Z,0.39
2022-12-04T17:49:36.097Z,0.38
2022-12-04T17:52:08.256Z,0.38
2022-12-04T17:54:36.576Z,0.38
2022-12-04T17:57:05.131Z,0.33
2022-12-04T17:59:33.777Z,0.01
2022-12-04T18:02:02.357Z,0.31
2022-12-04T18:04:32.450Z,0.36
2022-12-04T18:07:01.454Z,0.34
2022-12-04T18:09:29.868Z,0.34
2022-12-04T18:11:58.624Z,0.39
2022-12-04T18:14:26.791Z,0.36
2022-12-04T18:17:00.190Z,0.38
2022-12-04T18:19:33.255Z,0.35
2022-12-04T18:22:03.149Z,0.42
2022-12-04T18:24:31.549Z,0.06
2022-12-04T18:27:00.802Z,0.42
2022-12-04T18:29:29.133Z,0.17
2022-12-04T18:31:57.738Z,0.31
2022-12-04T18:34:26.684Z,0.34
2022-12-04T18:36:55.393Z,0.37
2022-12-04T18:39:26.780Z,0.18
2022-12-04T18:41:57.167Z,0.35
2022-12-04T18:44:26.099Z,0.36
2022-12-04T18:46:56.302Z,0.29
2022-12-04T18:49:25.458Z,0.33
2022-12-04T18:51:53.891Z,0.29
2022-12-04T18:54:27.973Z,0.34
2022-12-04T18:56:56.599Z,0.35
2022-12-04T18:59:26.732Z,0.39
2022-12-04T19:01:55.910Z,0.27
2022-12-04T19:04:25.472Z,0.38
2022-12-04T19:06:55.991Z,0.34
2022-12-04T19:10:02.075Z,0.14
2022-12-04T19:12:18.219Z,0.39
2022-12-04T19:14:46.318Z,0.39
2022-12-04T19:17:15.207Z,0.33
2022-12-04T19:19:43.588Z,0.38
2022-12-04T19:22:12.353Z,0.34
2022-12-04T19:24:42.299Z,0.41
2022-12-04T19:27:12.495Z,0.41
2022-12-04T19:29:42.436Z,0.39
2022-12-04T19:32:11.901Z,0.41
2022-12-04T19:34:45.438Z,0.40
2022-12-04T19:37:14.151Z,0.16
2022-12-04T19:39:44.032Z,0.28
2022-12-04T19:42:14.993Z,0.42
2022-12-04T19:44:48.797Z,0.08
2022-12-04T19:47:19.717Z,0.42
2022-12-04T19:49:48.192Z,0.40
2022-12-04T19:52:19.862Z,0.30
2022-12-04T19:54:49.578Z,0.36
2022-12-04T19:57:18.034Z,0.36
2022-12-04T19:59:47.763Z,0.40
2022-12-04T20:02:16.655Z,0.39
2022-12-04T20:04:45.562Z,0.41
2022-12-04T20:07:15.289Z,0.42
2022-12-04T20:09:55.019Z,0.47
2022-12-04T20:12:25.458Z,0.33
2022-12-04T20:14:54.039Z,0.43
2022-12-04T20:17:22.970Z,0.41
2022-12-04T20:19:51.373Z,0.32
2022-12-04T20:22:20.076Z,0.41
2022-12-04T20:24:48.461Z,0.44
2022-12-04T20:27:17.182Z,0.34
2022-12-04T20:29:47.146Z,-0.03
2022-12-04T20:32:15.699Z,0.38
2022-12-04T20:34:48.294Z,0.34
2022-12-04T20:37:16.806Z,0.39
2022-12-04T20:39:45.158Z,0.19
2022-12-04T20:42:14.807Z,0.39
2022-12-04T20:44:42.742Z,0.43
2022-12-04T20:47:12.772Z,0.43
2022-12-04T20:49:41.412Z,0.42
2022-12-04T20:52:11.175Z,0.39
2022-12-04T20:54:41.523Z,0.37
2022-12-04T20:57:10.725Z,0.20
2022-12-04T20:59:39.230Z,0.38
2022-12-04T21:02:07.673Z,0.36
2022-12-04T21:04:39.138Z,0.42
2022-12-04T21:07:08.559Z,0.39
2022-12-04T21:09:36.740Z,0.39
2022-12-04T21:12:26.655Z,0.38
2022-12-04T21:15:11.975Z,0.39
2022-12-04T21:17:40.866Z,0.39
2022-12-04T21:20:11.982Z,0.40
2022-12-04T21:22:40.557Z,0.40
2022-12-04T21:25:12.512Z,0.39
2022-12-04T21:27:40.925Z,0.39
2022-12-04T21:30:10.645Z,0.36
2022-12-04T21:32:39.109Z,0.40
2022-12-04T21:35:08.483Z,0.30
2022-12-04T21:37:38.129Z,0.27
2022-12-04T21:40:10.016Z,0.05
2022-12-04T21:42:38.900Z,0.31
2022-12-04T21:45:08.978Z,0.23
2022-12-04T21:47:38.542Z,0.26
2022-12-04T21:50:08.283Z,0.26
2022-12-04T21:52:38.133Z,0.33
2022-12-04T21:55:11.030Z,0.18
2022-12-04T21:57:42.537Z,-1.24
2022-12-04T22:00:13.871Z,0.21
2022-12-04T22:02:42.430Z,0.20
2022-12-04T22:05:11.324Z,-0.22
2022-12-04T22:07:41.201Z,0.36
2022-12-04T22:10:12.587Z,0.20
2022-12-04T22:12:49.494Z,0.31
2022-12-04T22:15:18.132Z,0.34
2022-12-04T22:17:46.676Z,-0.22
2022-12-04T22:20:14.872Z,0.28
2022-12-04T22:22:44.881Z,0.02
2022-12-04T22:25:14.293Z,0.21
2022-12-04T22:27:42.814Z,0.29
2022-12-04T22:30:12.589Z,0.19
2022-12-04T22:32:41.014Z,0.15
2022-12-04T22:35:10.553Z,0.23
2022-12-04T22:37:44.090Z,0.23
2022-12-04T22:40:16.439Z,-0.08
2022-12-04T22:42:45.650Z,-0.26
2022-12-04T22:45:14.299Z,-0.03
2022-12-04T22:47:43.114Z,0.22
2022-12-04T22:50:12.402Z,-0.16
2022-12-04T22:52:40.975Z,0.23
2022-12-04T22:55:09.610Z,0.26
2022-12-04T22:57:39.429Z,0.15
2022-12-04T23:00:09.573Z,0.25
2022-12-04T23:02:38.629Z,-0.19
2022-12-04T23:05:07.251Z,0.12
2022-12-04T23:07:36.862Z,0.14
2022-12-04T23:10:06.299Z,0.07
2022-12-04T23:12:35.257Z,0.10
2022-12-04T23:15:06.150Z,0.07
2022-12-04T23:17:34.679Z,-0.38
2022-12-04T23:20:02.856Z,0.01
2022-12-04T23:22:31.446Z,-0.12
2022-12-04T23:24:59.899Z,0.17
2022-12-04T23:27:28.539Z,-0.03
2022-12-04T23:29:56.956Z,-0.09
2022-12-04T23:32:26.875Z,0.15
2022-12-04T23:34:55.193Z,0.00
2022-12-04T23:37:23.825Z,-0.69
2022-12-04T23:39:51.918Z,0.15
2022-12-04T23:42:20.320Z,0.15
2022-12-04T23:44:48.614Z,-0.02
2022-12-04T23:47:17.166Z,0.06
2022-12-04T23:49:46.710Z,0.12
2022-12-04T23:52:15.213Z,0.13
2022-12-04T23:54:43.280Z,0.15
2022-12-04T23:57:11.808Z,0.14
2022-12-04T23:59:40.154Z,0.02
